Orford, NH

6:47 AM EDT on October 21, 2014 (GMT -0400)
Indian Pond | Change Station
CLOSE
Current Station
Personal Weather Station
Location: Orford, NH
Elevation: 345 m
Nearby Weather Stations

Elev 345 m 43.93 °N, 72.06 °W | Updated 26 seconds ago

Overcast
Overcast
6.5 °C
Feels Like 5 °C
N
7.6
Wind Variable Wind from ESE

Today
High -- | Low -- °C
--% Chance of Precip.
Yesterday
High -- | Low -- °C
Precip. -- mm
7:10 AM 5:54 PM
Waning Crescent, 6% visible
Pressure 1015 hPa
Visibility 11.3 kilometers
Clouds Scattered Clouds 1828 m
Mostly Cloudy 2133 m
Overcast 2895 m
Windchill 5 °C
Dew Point 5 °C
Humidity 92%
Rainfall 0 mm
Snow Depth Not available.
UV 0 out of 12
Pollen .10 out of 12
Ozone Good
PM2.5 Good
Flu Activity Local Activity
METAR K1P1 211035Z AUTO 00000KT 7SM SCT060 BKN070 OVC095 05/05 A2998 RMK AO2 T00450045

More Conditions Fewer Conditions

Pressure 1015 hPa
Visibility 11.3 kilometers
Clouds Scattered Clouds 1828 m
Mostly Cloudy 2133 m
Overcast 2895 m
Windchill 5 °C
Dew Point 5 °C
Humidity 92%
Rainfall 0 mm
Snow Depth Not available.
UV 0 out of 12
Pollen .10 out of 12
Ozone Good
PM2.5 Good
Flu Activity Local Activity
METAR K1P1 211035Z AUTO 00000KT 7SM SCT060 BKN070 OVC095 05/05 A2998 RMK AO2 T00450045

More Conditions Fewer Conditions

10-Day Weather Forecast

Almanac

Astronomy

Oct. 21, 2014 Rise Set
Actual Time 7:10 AM EDT 5:54 PM EDT
Civil Twilight 6:40 AM EDT 6:24 PM EDT
Nautical Twilight 6:07 AM EDT 6:57 PM EDT
Astronomical Twilight 5:34 AM EDT 7:30 PM EDT
Moon 4:47 AM EDT 4:50 PM EDT
Length of Visible Light 11h 43m
Length of Day
10h 44m
Tomorrow will be 2m 51s shorter.
Waning Crescent, 6% of the Moon is Illuminated
Today
Waning Crescent
Oct 23
New
Oct 30
First Quarter
Nov 6
Full
Nov 14
Last Quarter

Today's Extremes

State Highs State Lows

Community

WunderPhotos

Upload Photos

1,763,625 photos uploaded!

Nearby

Air Quality

  Air Quality AQ Index Pollutant
Yesterday Good
OZONE
Yesterday Good
PM2.5
Current Good
PM2.5
Current Good
OZONE
Tuesday Good
PM2.5
Tuesday Good
OZONE

Snow Depth

Station Depth Elevation
No new snow has been reported.

Earthquake Activity

City Distance Mag. Time & Date
No recent earthquake activity has been reported nearby.
Minimum magnitude displayed is 2.5.

Coastal Water Temperatures

Place Temperature
No Stations Reporting

Nearby Weather Stations